createdAt,value
2024-03-17T00:00:00.460Z,83
2024-03-17T00:04:00.457Z,83
2024-03-17T00:08:00.476Z,83
2024-03-17T00:12:00.442Z,83
2024-03-17T00:16:00.469Z,84
2024-03-17T00:20:00.447Z,84
2024-03-17T00:24:00.466Z,84
2024-03-17T00:28:00.462Z,84
2024-03-17T00:32:00.481Z,84
2024-03-17T00:36:00.443Z,85
2024-03-17T00:40:00.528Z,85
2024-03-17T00:44:00.451Z,85
2024-03-17T00:48:00.483Z,85
2024-03-17T00:52:00.470Z,86
2024-03-17T00:56:00.477Z,86
2024-03-17T01:00:00.492Z,86
2024-03-17T01:04:00.466Z,85
2024-03-17T01:08:00.459Z,86
2024-03-17T01:12:00.478Z,86
2024-03-17T01:16:00.535Z,86
2024-03-17T01:20:00.504Z,86
2024-03-17T01:24:00.468Z,86
2024-03-17T01:28:00.489Z,86
2024-03-17T01:32:00.455Z,86
2024-03-17T01:36:00.448Z,86
2024-03-17T01:40:00.640Z,86
2024-03-17T01:44:00.453Z,86
2024-03-17T01:48:00.480Z,86
2024-03-17T01:52:00.499Z,86
2024-03-17T01:56:00.492Z,86
2024-03-17T02:00:00.559Z,86
2024-03-17T02:04:00.487Z,86
2024-03-17T02:08:00.471Z,87
2024-03-17T02:12:00.471Z,87
2024-03-17T02:16:00.547Z,87
2024-03-17T02:20:00.481Z,86
2024-03-17T02:24:00.430Z,87
2024-03-17T02:28:00.466Z,87
2024-03-17T02:32:00.472Z,87
2024-03-17T02:36:00.470Z,87
2024-03-17T02:40:00.461Z,87
2024-03-17T02:44:00.480Z,87
2024-03-17T02:48:00.484Z,87
2024-03-17T02:52:00.495Z,87
2024-03-17T02:56:00.454Z,87
2024-03-17T03:00:00.525Z,87
2024-03-17T03:04:00.511Z,87
2024-03-17T03:08:00.487Z,87
2024-03-17T03:12:00.474Z,87
2024-03-17T03:16:00.442Z,87
2024-03-17T03:20:00.441Z,87
2024-03-17T03:24:00.439Z,88
2024-03-17T03:28:00.465Z,88
2024-03-17T03:32:02.960Z,88
2024-03-17T03:36:00.446Z,89
2024-03-17T03:40:00.462Z,89
2024-03-17T03:44:00.456Z,88
2024-03-17T03:48:00.481Z,88
2024-03-17T03:52:00.479Z,89
2024-03-17T03:56:00.458Z,89
2024-03-17T04:00:00.471Z,89
2024-03-17T04:04:00.446Z,89
2024-03-17T04:08:00.477Z,89
2024-03-17T04:12:00.461Z,89
2024-03-17T04:16:00.465Z,89
2024-03-17T04:20:00.455Z,90
2024-03-17T04:24:00.444Z,90
2024-03-17T04:28:00.459Z,90
2024-03-17T04:32:00.443Z,90
2024-03-17T04:36:00.440Z,90
2024-03-17T04:40:00.456Z,90
2024-03-17T04:44:00.449Z,90
2024-03-17T04:48:00.451Z,90
2024-03-17T04:52:00.446Z,90
2024-03-17T04:56:00.450Z,90
2024-03-17T05:00:00.480Z,90
2024-03-17T05:04:00.441Z,90
2024-03-17T05:08:00.457Z,90
2024-03-17T05:12:00.461Z,91
2024-03-17T05:16:00.437Z,91
2024-03-17T05:20:00.451Z,91
2024-03-17T05:24:00.460Z,91
2024-03-17T05:28:00.447Z,91
2024-03-17T05:32:00.453Z,91
2024-03-17T05:36:00.451Z,91
2024-03-17T05:40:00.457Z,91
2024-03-17T05:44:00.477Z,92
2024-03-17T05:48:00.457Z,92
2024-03-17T05:52:00.454Z,92
2024-03-17T05:56:00.442Z,92
2024-03-17T06:00:00.472Z,92
2024-03-17T06:04:00.437Z,92
2024-03-17T06:08:00.470Z,92
2024-03-17T06:12:00.447Z,92
2024-03-17T06:16:00.450Z,92
2024-03-17T06:20:00.485Z,92
2024-03-17T06:24:00.434Z,93
2024-03-17T06:28:00.445Z,93
2024-03-17T06:32:00.450Z,93
2024-03-17T06:36:00.453Z,93
2024-03-17T06:40:00.474Z,93
2024-03-17T06:44:00.474Z,93
2024-03-17T06:48:00.448Z,93
2024-03-17T06:52:00.480Z,93
2024-03-17T06:56:00.464Z,92
2024-03-17T07:00:00.493Z,92
2024-03-17T07:04:00.454Z,92
2024-03-17T07:08:00.510Z,91
2024-03-17T07:12:00.456Z,91
2024-03-17T07:16:00.451Z,90
2024-03-17T07:20:00.473Z,90
2024-03-17T07:24:00.457Z,88
2024-03-17T07:28:00.432Z,87
2024-03-17T07:32:00.460Z,85
2024-03-17T07:36:00.461Z,86
2024-03-17T07:40:00.431Z,83
2024-03-17T07:44:00.460Z,82
2024-03-17T07:48:00.478Z,82
2024-03-17T07:52:00.464Z,81
2024-03-17T07:56:00.433Z,79
2024-03-17T08:00:00.497Z,77
2024-03-17T08:04:00.448Z,79
2024-03-17T08:08:00.453Z,78
2024-03-17T08:12:00.463Z,76
2024-03-17T08:16:00.446Z,77
2024-03-17T08:20:00.439Z,77
2024-03-17T08:24:00.507Z,77
2024-03-17T08:28:00.505Z,77
2024-03-17T08:32:00.453Z,74
2024-03-17T08:36:00.452Z,73
2024-03-17T08:40:00.488Z,72
2024-03-17T08:44:00.452Z,72
2024-03-17T08:48:00.434Z,70
2024-03-17T08:52:00.477Z,67
2024-03-17T08:56:00.444Z,67
2024-03-17T09:00:00.491Z,64
2024-03-17T09:04:00.450Z,67
2024-03-17T09:08:00.445Z,65
2024-03-17T09:12:00.454Z,65
2024-03-17T09:16:00.452Z,65
2024-03-17T09:20:00.555Z,67
2024-03-17T09:24:00.460Z,66
2024-03-17T09:28:00.474Z,63
2024-03-17T09:32:00.449Z,65
2024-03-17T09:36:00.466Z,68
2024-03-17T09:40:00.493Z,64
2024-03-17T09:44:00.446Z,66
2024-03-17T09:48:00.442Z,67
2024-03-17T09:52:00.448Z,67
2024-03-17T09:56:00.445Z,68
2024-03-17T10:00:00.463Z,64
2024-03-17T10:04:00.448Z,65
2024-03-17T10:08:00.470Z,63
2024-03-17T10:12:00.446Z,61
2024-03-17T10:16:00.452Z,59
2024-03-17T10:20:00.957Z,61
2024-03-17T10:24:00.449Z,63
2024-03-17T10:28:00.444Z,58
2024-03-17T10:32:00.459Z,59
2024-03-17T10:36:00.487Z,57
2024-03-17T10:40:00.712Z,59
2024-03-17T10:44:03.216Z,57
2024-03-17T10:48:00.507Z,56
2024-03-17T10:52:00.465Z,58
2024-03-17T10:56:02.839Z,58
2024-03-17T11:00:00.510Z,60
2024-03-17T11:04:00.456Z,57
2024-03-17T11:08:00.466Z,60
2024-03-17T11:12:00.467Z,59
2024-03-17T11:16:00.448Z,57
2024-03-17T11:20:00.537Z,58
2024-03-17T11:24:00.452Z,51
2024-03-17T11:28:00.512Z,57
2024-03-17T11:32:00.500Z,56
2024-03-17T11:36:00.446Z,56
2024-03-17T11:40:00.431Z,58
2024-03-17T11:44:00.451Z,59
2024-03-17T11:48:00.492Z,55
2024-03-17T11:52:00.443Z,57
2024-03-17T11:56:00.461Z,54
2024-03-17T12:00:00.598Z,55
2024-03-17T12:04:00.458Z,52
2024-03-17T12:08:00.449Z,54
2024-03-17T12:12:00.443Z,51
2024-03-17T12:16:00.488Z,54
2024-03-17T12:20:00.462Z,53
2024-03-17T12:24:00.516Z,55
2024-03-17T12:28:00.527Z,56
2024-03-17T12:32:00.429Z,56
2024-03-17T12:36:00.524Z,54
2024-03-17T12:40:00.515Z,54
2024-03-17T12:44:00.439Z,52
2024-03-17T12:48:00.459Z,49
2024-03-17T12:52:00.565Z,50
2024-03-17T12:56:00.429Z,45
2024-03-17T13:00:00.447Z,46
2024-03-17T13:04:00.469Z,47
2024-03-17T13:08:00.469Z,47
2024-03-17T13:12:00.551Z,49
2024-03-17T13:16:00.471Z,51
2024-03-17T13:20:00.476Z,52
2024-03-17T13:24:00.456Z,47
2024-03-17T13:28:00.511Z,47
2024-03-17T13:32:00.440Z,50
2024-03-17T13:36:00.462Z,46
2024-03-17T13:40:00.433Z,49
2024-03-17T13:44:00.465Z,47
2024-03-17T13:48:00.460Z,48
2024-03-17T13:52:00.473Z,45
2024-03-17T13:56:00.455Z,44
2024-03-17T14:00:00.482Z,47
2024-03-17T14:04:00.459Z,45
2024-03-17T14:08:00.455Z,46
2024-03-17T14:12:00.464Z,45
2024-03-17T14:16:00.453Z,47
2024-03-17T14:20:00.470Z,46
2024-03-17T14:24:00.473Z,46
2024-03-17T14:28:00.465Z,46
2024-03-17T14:32:00.443Z,47
2024-03-17T14:36:00.456Z,48
2024-03-17T14:40:00.450Z,50
2024-03-17T14:44:00.453Z,51
2024-03-17T14:48:00.472Z,50
2024-03-17T14:52:00.447Z,50
2024-03-17T14:56:00.461Z,51
2024-03-17T15:00:00.437Z,51
2024-03-17T15:04:00.441Z,51
2024-03-17T15:08:00.461Z,51
2024-03-17T15:12:00.467Z,51
2024-03-17T15:16:01.650Z,52
2024-03-17T15:20:00.443Z,52
2024-03-17T15:24:00.458Z,53
2024-03-17T15:28:00.434Z,53
2024-03-17T15:32:00.468Z,54
2024-03-17T15:36:00.438Z,54
2024-03-17T15:40:00.478Z,55
2024-03-17T15:44:00.458Z,55
2024-03-17T15:48:00.442Z,56
2024-03-17T15:52:00.477Z,54
2024-03-17T15:56:00.488Z,55
2024-03-17T16:00:00.497Z,54
2024-03-17T16:04:00.446Z,56
2024-03-17T16:08:00.463Z,56
2024-03-17T16:12:00.469Z,56
2024-03-17T16:16:00.439Z,56
2024-03-17T16:20:00.462Z,56
2024-03-17T16:24:00.449Z,56
2024-03-17T16:28:00.475Z,57
2024-03-17T16:32:00.453Z,57
2024-03-17T16:36:00.439Z,57
2024-03-17T16:40:00.462Z,58
2024-03-17T16:44:00.438Z,58
2024-03-17T16:48:00.447Z,58
2024-03-17T16:52:00.460Z,59
2024-03-17T16:56:00.444Z,59
2024-03-17T17:00:00.447Z,59
2024-03-17T17:04:00.462Z,60
2024-03-17T17:08:00.447Z,61
2024-03-17T17:12:00.438Z,62
2024-03-17T17:16:00.462Z,62
2024-03-17T17:20:00.839Z,63
2024-03-17T17:24:00.441Z,63
2024-03-17T17:28:00.452Z,64
2024-03-17T17:32:00.426Z,64
2024-03-17T17:36:00.476Z,65
2024-03-17T17:40:00.480Z,65
2024-03-17T17:44:00.439Z,66
2024-03-17T17:48:00.444Z,66
2024-03-17T17:52:00.443Z,67
2024-03-17T17:56:00.449Z,67
2024-03-17T18:00:00.556Z,68
2024-03-17T18:04:00.446Z,69
2024-03-17T18:08:00.442Z,69
2024-03-17T18:12:00.464Z,71
2024-03-17T18:16:00.450Z,71
2024-03-17T18:20:00.456Z,72
2024-03-17T18:24:00.453Z,72
2024-03-17T18:28:00.470Z,73
2024-03-17T18:32:00.446Z,74
2024-03-17T18:36:10.999Z,74
2024-03-17T18:40:00.455Z,74
2024-03-17T18:44:00.463Z,74
2024-03-17T18:48:00.458Z,75
2024-03-17T18:52:00.473Z,75
2024-03-17T18:56:00.474Z,75
2024-03-17T19:00:00.488Z,76
2024-03-17T19:04:00.447Z,76
2024-03-17T19:08:00.434Z,76
2024-03-17T19:12:00.451Z,76
2024-03-17T19:16:00.449Z,77
2024-03-17T19:20:00.474Z,77
2024-03-17T19:24:00.460Z,77
2024-03-17T19:28:00.449Z,78
2024-03-17T19:32:00.459Z,77
2024-03-17T19:36:00.444Z,77
2024-03-17T19:40:00.463Z,77
2024-03-17T19:44:00.472Z,77
2024-03-17T19:48:00.473Z,76
2024-03-17T19:52:00.476Z,76
2024-03-17T19:56:00.460Z,76
2024-03-17T20:00:00.472Z,76
2024-03-17T20:04:00.456Z,76
2024-03-17T20:08:00.480Z,77
2024-03-17T20:12:00.451Z,77
2024-03-17T20:16:00.458Z,77
2024-03-17T20:20:00.480Z,77
2024-03-17T20:24:00.435Z,78
2024-03-17T20:28:00.470Z,79
2024-03-17T20:32:00.461Z,79
2024-03-17T20:36:00.467Z,78
2024-03-17T20:40:00.495Z,78
2024-03-17T20:44:00.465Z,78
2024-03-17T20:48:00.470Z,78
2024-03-17T20:52:00.455Z,78
2024-03-17T20:56:00.463Z,78
2024-03-17T21:00:06.798Z,78
2024-03-17T21:04:00.448Z,78
2024-03-17T21:08:00.455Z,78
2024-03-17T21:12:00.465Z,79
2024-03-17T21:16:00.435Z,79
2024-03-17T21:20:00.456Z,79
2024-03-17T21:24:00.447Z,79
2024-03-17T21:28:00.448Z,79
2024-03-17T21:32:00.465Z,79
2024-03-17T21:36:00.456Z,80
2024-03-17T21:40:00.450Z,80
2024-03-17T21:44:00.454Z,80
2024-03-17T21:48:00.458Z,80
2024-03-17T21:52:00.463Z,80
2024-03-17T21:56:00.477Z,80
2024-03-17T22:00:00.483Z,80
2024-03-17T22:04:00.458Z,81
2024-03-17T22:08:00.479Z,81
2024-03-17T22:12:00.489Z,81
2024-03-17T22:16:00.455Z,81
2024-03-17T22:20:00.561Z,82
2024-03-17T22:24:00.477Z,82
2024-03-17T22:28:00.494Z,82
2024-03-17T22:32:00.460Z,82
2024-03-17T22:36:00.466Z,82
2024-03-17T22:40:00.474Z,82
2024-03-17T22:44:00.437Z,82
2024-03-17T22:48:00.467Z,82
2024-03-17T22:52:00.480Z,82
2024-03-17T22:56:00.434Z,83
2024-03-17T23:00:00.475Z,83
2024-03-17T23:04:00.558Z,84
2024-03-17T23:08:00.466Z,84
2024-03-17T23:12:00.475Z,84
2024-03-17T23:16:00.477Z,84
2024-03-17T23:20:00.516Z,85
2024-03-17T23:24:00.454Z,84
2024-03-17T23:28:00.462Z,85
2024-03-17T23:32:00.478Z,85
2024-03-17T23:36:00.574Z,85
2024-03-17T23:40:00.479Z,86
2024-03-17T23:44:00.472Z,86
2024-03-17T23:48:00.453Z,86
2024-03-17T23:52:00.470Z,86
2024-03-17T23:56:00.456Z,86
